sensor_id;sensor_type;location;lat;lon;timestamp;P1;durP1;ratioP1;P2;durP2;ratioP2
70322;SDS011;57735;56.264;43.898;2023-02-19T00:01:56;20.35;;;7.20;;
70322;SDS011;57735;56.264;43.898;2023-02-19T00:04:27;23.95;;;8.38;;
70322;SDS011;57735;56.264;43.898;2023-02-19T00:06:58;21.58;;;7.88;;
70322;SDS011;57735;56.264;43.898;2023-02-19T00:09:29;20.17;;;7.60;;
70322;SDS011;57735;56.264;43.898;2023-02-19T00:11:59;18.08;;;7.10;;
70322;SDS011;57735;56.264;43.898;2023-02-19T00:14:32;20.85;;;7.38;;
70322;SDS011;57735;56.264;43.898;2023-02-19T00:17:03;20.40;;;6.70;;
70322;SDS011;57735;56.264;43.898;2023-02-19T00:19:34;21.92;;;7.32;;
70322;SDS011;57735;56.264;43.898;2023-02-19T00:22:05;18.80;;;7.07;;
70322;SDS011;57735;56.264;43.898;2023-02-19T00:24:36;24.75;;;7.68;;
70322;SDS011;57735;56.264;43.898;2023-02-19T00:27:06;17.83;;;7.60;;
70322;SDS011;57735;56.264;43.898;2023-02-19T00:29:37;22.70;;;7.07;;
70322;SDS011;57735;56.264;43.898;2023-02-19T00:32:08;16.42;;;5.95;;
70322;SDS011;57735;56.264;43.898;2023-02-19T00:34:39;24.70;;;8.25;;
70322;SDS011;57735;56.264;43.898;2023-02-19T00:37:12;19.42;;;7.78;;
70322;SDS011;57735;56.264;43.898;2023-02-19T00:39:42;23.38;;;7.53;;
70322;SDS011;57735;56.264;43.898;2023-02-19T00:42:13;19.10;;;6.72;;
70322;SDS011;57735;56.264;43.898;2023-02-19T00:44:46;17.30;;;7.43;;
70322;SDS011;57735;56.264;43.898;2023-02-19T00:47:18;18.67;;;7.25;;
70322;SDS011;57735;56.264;43.898;2023-02-19T00:49:48;19.83;;;6.97;;
70322;SDS011;57735;56.264;43.898;2023-02-19T00:52:19;22.38;;;7.30;;
70322;SDS011;57735;56.264;43.898;2023-02-19T00:54:50;22.20;;;6.72;;
70322;SDS011;57735;56.264;43.898;2023-02-19T00:57:21;22.48;;;7.55;;
70322;SDS011;57735;56.264;43.898;2023-02-19T00:59:54;19.75;;;7.30;;
70322;SDS011;57735;56.264;43.898;2023-02-19T01:02:24;18.92;;;6.38;;
70322;SDS011;57735;56.264;43.898;2023-02-19T01:04:56;17.55;;;7.03;;
70322;SDS011;57735;56.264;43.898;2023-02-19T01:07:26;20.73;;;8.07;;
70322;SDS011;57735;56.264;43.898;2023-02-19T01:10:00;19.88;;;6.60;;
70322;SDS011;57735;56.264;43.898;2023-02-19T01:12:31;24.40;;;8.23;;
70322;SDS011;57735;56.264;43.898;2023-02-19T01:15:01;24.48;;;7.25;;
70322;SDS011;57735;56.264;43.898;2023-02-19T01:17:35;16.42;;;6.30;;
70322;SDS011;57735;56.264;43.898;2023-02-19T01:20:06;18.52;;;7.13;;
70322;SDS011;57735;56.264;43.898;2023-02-19T01:22:37;15.77;;;6.97;;
70322;SDS011;57735;56.264;43.898;2023-02-19T01:25:08;12.15;;;3.88;;
70322;SDS011;57735;56.264;43.898;2023-02-19T01:27:38;21.63;;;6.65;;
70322;SDS011;57735;56.264;43.898;2023-02-19T01:30:09;22.65;;;7.35;;
70322;SDS011;57735;56.264;43.898;2023-02-19T01:32:41;19.20;;;5.65;;
70322;SDS011;57735;56.264;43.898;2023-02-19T01:35:11;15.32;;;5.80;;
70322;SDS011;57735;56.264;43.898;2023-02-19T01:37:42;19.30;;;6.55;;
70322;SDS011;57735;56.264;43.898;2023-02-19T01:40:13;17.88;;;6.75;;
70322;SDS011;57735;56.264;43.898;2023-02-19T01:42:44;19.85;;;6.78;;
70322;SDS011;57735;56.264;43.898;2023-02-19T01:45:20;17.15;;;7.03;;
70322;SDS011;57735;56.264;43.898;2023-02-19T01:48:13;12.15;;;4.65;;
70322;SDS011;57735;56.264;43.898;2023-02-19T01:51:08;20.13;;;6.53;;
70322;SDS011;57735;56.264;43.898;2023-02-19T01:53:49;16.52;;;6.45;;
70322;SDS011;57735;56.264;43.898;2023-02-19T01:56:26;15.05;;;5.32;;
70322;SDS011;57735;56.264;43.898;2023-02-19T01:59:00;16.15;;;6.35;;
70322;SDS011;57735;56.264;43.898;2023-02-19T02:01:31;18.92;;;6.80;;
70322;SDS011;57735;56.264;43.898;2023-02-19T02:04:02;18.48;;;6.30;;
70322;SDS011;57735;56.264;43.898;2023-02-19T02:09:24;20.02;;;6.68;;
70322;SDS011;57735;56.264;43.898;2023-02-19T02:14:46;15.43;;;6.10;;
70322;SDS011;57735;56.264;43.898;2023-02-19T02:17:32;17.02;;;6.47;;
70322;SDS011;57735;56.264;43.898;2023-02-19T02:25:58;20.33;;;7.57;;
70322;SDS011;57735;56.264;43.898;2023-02-19T02:28:45;21.75;;;7.30;;
70322;SDS011;57735;56.264;43.898;2023-02-19T02:31:26;23.33;;;7.00;;
70322;SDS011;57735;56.264;43.898;2023-02-19T02:34:15;24.98;;;8.73;;
70322;SDS011;57735;56.264;43.898;2023-02-19T02:36:52;18.65;;;6.72;;
70322;SDS011;57735;56.264;43.898;2023-02-19T02:39:25;15.87;;;4.90;;
70322;SDS011;57735;56.264;43.898;2023-02-19T02:41:59;27.33;;;8.68;;
70322;SDS011;57735;56.264;43.898;2023-02-19T02:44:51;20.50;;;8.02;;
70322;SDS011;57735;56.264;43.898;2023-02-19T02:47:42;19.92;;;7.60;;
70322;SDS011;57735;56.264;43.898;2023-02-19T02:50:19;17.00;;;6.82;;
70322;SDS011;57735;56.264;43.898;2023-02-19T02:52:55;21.10;;;7.60;;
70322;SDS011;57735;56.264;43.898;2023-02-19T02:55:49;22.70;;;8.50;;
70322;SDS011;57735;56.264;43.898;2023-02-19T02:58:24;23.63;;;8.38;;
70322;SDS011;57735;56.264;43.898;2023-02-19T03:00:58;22.40;;;8.20;;
70322;SDS011;57735;56.264;43.898;2023-02-19T03:04:00;29.25;;;10.35;;
70322;SDS011;57735;56.264;43.898;2023-02-19T03:06:35;20.65;;;8.52;;
70322;SDS011;57735;56.264;43.898;2023-02-19T03:09:12;24.95;;;9.10;;
70322;SDS011;57735;56.264;43.898;2023-02-19T03:11:48;26.17;;;6.57;;
70322;SDS011;57735;56.264;43.898;2023-02-19T03:14:41;29.33;;;7.97;;
70322;SDS011;57735;56.264;43.898;2023-02-19T03:17:38;25.15;;;7.53;;
70322;SDS011;57735;56.264;43.898;2023-02-19T03:20:29;20.73;;;7.15;;
70322;SDS011;57735;56.264;43.898;2023-02-19T03:23:03;23.40;;;7.30;;
70322;SDS011;57735;56.264;43.898;2023-02-19T03:25:37;20.67;;;7.37;;
70322;SDS011;57735;56.264;43.898;2023-02-19T03:28:27;22.85;;;7.85;;
70322;SDS011;57735;56.264;43.898;2023-02-19T03:31:20;23.88;;;7.07;;
70322;SDS011;57735;56.264;43.898;2023-02-19T03:33:55;19.20;;;7.00;;
70322;SDS011;57735;56.264;43.898;2023-02-19T03:36:34;20.45;;;7.18;;
70322;SDS011;57735;56.264;43.898;2023-02-19T03:39:10;13.73;;;4.75;;
70322;SDS011;57735;56.264;43.898;2023-02-19T03:44:26;19.30;;;6.78;;
70322;SDS011;57735;56.264;43.898;2023-02-19T03:47:11;21.85;;;7.30;;
70322;SDS011;57735;56.264;43.898;2023-02-19T03:49:59;15.80;;;5.90;;
70322;SDS011;57735;56.264;43.898;2023-02-19T03:58:21;23.25;;;6.95;;
70322;SDS011;57735;56.264;43.898;2023-02-19T04:01:01;23.13;;;7.68;;
70322;SDS011;57735;56.264;43.898;2023-02-19T04:06:25;18.10;;;6.88;;
70322;SDS011;57735;56.264;43.898;2023-02-19T04:08:58;14.48;;;4.72;;
70322;SDS011;57735;56.264;43.898;2023-02-19T04:16:45;18.40;;;7.55;;
70322;SDS011;57735;56.264;43.898;2023-02-19T04:19:20;26.73;;;9.10;;
70322;SDS011;57735;56.264;43.898;2023-02-19T04:21:54;18.95;;;6.15;;
70322;SDS011;57735;56.264;43.898;2023-02-19T04:24:31;18.85;;;7.63;;
70322;SDS011;57735;56.264;43.898;2023-02-19T04:27:06;18.42;;;7.13;;
70322;SDS011;57735;56.264;43.898;2023-02-19T04:29:39;25.05;;;8.73;;
70322;SDS011;57735;56.264;43.898;2023-02-19T04:32:10;20.77;;;7.43;;
70322;SDS011;57735;56.264;43.898;2023-02-19T04:34:42;21.50;;;8.18;;
70322;SDS011;57735;56.264;43.898;2023-02-19T04:37:12;24.45;;;8.88;;
70322;SDS011;57735;56.264;43.898;2023-02-19T04:39:43;26.70;;;8.40;;
70322;SDS011;57735;56.264;43.898;2023-02-19T04:42:14;23.77;;;7.10;;
70322;SDS011;57735;56.264;43.898;2023-02-19T04:44:47;15.65;;;5.97;;
70322;SDS011;57735;56.264;43.898;2023-02-19T04:47:18;28.45;;;7.43;;
70322;SDS011;57735;56.264;43.898;2023-02-19T04:49:49;21.42;;;8.45;;
70322;SDS011;57735;56.264;43.898;2023-02-19T04:52:20;21.58;;;7.43;;
70322;SDS011;57735;56.264;43.898;2023-02-19T04:54:50;21.80;;;7.45;;
70322;SDS011;57735;56.264;43.898;2023-02-19T04:57:21;24.85;;;8.20;;
70322;SDS011;57735;56.264;43.898;2023-02-19T04:59:54;25.20;;;8.77;;
70322;SDS011;57735;56.264;43.898;2023-02-19T05:02:25;24.25;;;7.82;;
70322;SDS011;57735;56.264;43.898;2023-02-19T05:04:56;17.10;;;7.10;;
70322;SDS011;57735;56.264;43.898;2023-02-19T05:07:26;24.27;;;8.27;;
70322;SDS011;57735;56.264;43.898;2023-02-19T05:09:57;26.98;;;7.60;;
70322;SDS011;57735;56.264;43.898;2023-02-19T05:12:29;18.75;;;6.30;;
70322;SDS011;57735;56.264;43.898;2023-02-19T05:15:00;28.38;;;8.52;;
70322;SDS011;57735;56.264;43.898;2023-02-19T05:17:34;26.00;;;8.48;;
70322;SDS011;57735;56.264;43.898;2023-02-19T05:20:05;15.75;;;5.50;;
70322;SDS011;57735;56.264;43.898;2023-02-19T05:22:39;23.95;;;7.20;;
70322;SDS011;57735;56.264;43.898;2023-02-19T05:25:09;22.70;;;8.65;;
70322;SDS011;57735;56.264;43.898;2023-02-19T05:27:42;22.58;;;7.30;;
70322;SDS011;57735;56.264;43.898;2023-02-19T05:30:13;31.65;;;9.43;;
70322;SDS011;57735;56.264;43.898;2023-02-19T05:32:44;26.45;;;8.68;;
70322;SDS011;57735;56.264;43.898;2023-02-19T05:35:15;21.40;;;6.55;;
70322;SDS011;57735;56.264;43.898;2023-02-19T05:37:46;20.23;;;8.18;;
70322;SDS011;57735;56.264;43.898;2023-02-19T05:40:16;28.85;;;8.65;;
70322;SDS011;57735;56.264;43.898;2023-02-19T05:42:47;25.08;;;9.23;;
70322;SDS011;57735;56.264;43.898;2023-02-19T05:45:18;22.65;;;8.88;;
70322;SDS011;57735;56.264;43.898;2023-02-19T05:47:49;30.15;;;9.70;;
70322;SDS011;57735;56.264;43.898;2023-02-19T05:50:19;24.83;;;8.25;;
70322;SDS011;57735;56.264;43.898;2023-02-19T05:52:50;29.42;;;9.57;;
70322;SDS011;57735;56.264;43.898;2023-02-19T05:55:22;23.17;;;8.07;;
70322;SDS011;57735;56.264;43.898;2023-02-19T05:57:53;23.63;;;8.40;;
70322;SDS011;57735;56.264;43.898;2023-02-19T06:00:24;23.38;;;8.48;;
70322;SDS011;57735;56.264;43.898;2023-02-19T06:02:59;15.70;;;6.47;;
70322;SDS011;57735;56.264;43.898;2023-02-19T06:05:30;25.45;;;8.10;;
70322;SDS011;57735;56.264;43.898;2023-02-19T06:08:01;27.80;;;7.65;;
70322;SDS011;57735;56.264;43.898;2023-02-19T06:10:34;21.20;;;7.05;;
70322;SDS011;57735;56.264;43.898;2023-02-19T06:15:37;18.65;;;7.22;;
70322;SDS011;57735;56.264;43.898;2023-02-19T06:18:09;28.13;;;8.35;;
70322;SDS011;57735;56.264;43.898;2023-02-19T06:20:39;24.88;;;8.35;;
70322;SDS011;57735;56.264;43.898;2023-02-19T06:23:15;23.38;;;8.13;;
70322;SDS011;57735;56.264;43.898;2023-02-19T06:25:45;25.40;;;8.75;;
70322;SDS011;57735;56.264;43.898;2023-02-19T06:28:16;24.13;;;7.63;;
70322;SDS011;57735;56.264;43.898;2023-02-19T06:30:47;28.23;;;8.65;;
70322;SDS011;57735;56.264;43.898;2023-02-19T06:33:18;24.83;;;8.32;;
70322;SDS011;57735;56.264;43.898;2023-02-19T06:35:48;27.02;;;8.52;;
70322;SDS011;57735;56.264;43.898;2023-02-19T06:38:20;22.13;;;8.00;;
70322;SDS011;57735;56.264;43.898;2023-02-19T06:40:51;24.33;;;8.55;;
70322;SDS011;57735;56.264;43.898;2023-02-19T06:43:22;21.80;;;7.97;;
70322;SDS011;57735;56.264;43.898;2023-02-19T06:45:52;24.10;;;8.77;;
70322;SDS011;57735;56.264;43.898;2023-02-19T06:48:25;20.98;;;6.60;;
70322;SDS011;57735;56.264;43.898;2023-02-19T06:50:56;22.45;;;7.80;;
70322;SDS011;57735;56.264;43.898;2023-02-19T06:53:27;20.27;;;7.13;;
70322;SDS011;57735;56.264;43.898;2023-02-19T06:56:00;16.05;;;5.93;;
70322;SDS011;57735;56.264;43.898;2023-02-19T06:58:37;26.67;;;8.45;;
70322;SDS011;57735;56.264;43.898;2023-02-19T07:01:09;25.23;;;9.20;;
70322;SDS011;57735;56.264;43.898;2023-02-19T07:03:40;21.05;;;7.07;;
70322;SDS011;57735;56.264;43.898;2023-02-19T07:06:13;20.92;;;6.43;;
70322;SDS011;57735;56.264;43.898;2023-02-19T07:08:47;22.30;;;7.72;;
70322;SDS011;57735;56.264;43.898;2023-02-19T07:11:19;26.67;;;8.07;;
70322;SDS011;57735;56.264;43.898;2023-02-19T07:13:53;19.88;;;7.80;;
70322;SDS011;57735;56.264;43.898;2023-02-19T07:16:27;31.25;;;8.85;;
70322;SDS011;57735;56.264;43.898;2023-02-19T07:18:59;21.70;;;7.93;;
70322;SDS011;57735;56.264;43.898;2023-02-19T07:21:30;27.90;;;8.75;;
70322;SDS011;57735;56.264;43.898;2023-02-19T07:24:01;27.27;;;8.65;;
70322;SDS011;57735;56.264;43.898;2023-02-19T07:26:31;23.17;;;8.82;;
70322;SDS011;57735;56.264;43.898;2023-02-19T07:29:02;21.77;;;8.35;;
70322;SDS011;57735;56.264;43.898;2023-02-19T07:31:33;16.40;;;7.55;;
70322;SDS011;57735;56.264;43.898;2023-02-19T07:34:05;18.38;;;6.35;;
70322;SDS011;57735;56.264;43.898;2023-02-19T07:36:36;23.13;;;7.93;;
70322;SDS011;57735;56.264;43.898;2023-02-19T07:39:09;21.67;;;7.75;;
70322;SDS011;57735;56.264;43.898;2023-02-19T07:41:42;23.20;;;8.48;;
70322;SDS011;57735;56.264;43.898;2023-02-19T07:44:18;27.85;;;8.57;;
70322;SDS011;57735;56.264;43.898;2023-02-19T07:46:49;26.80;;;8.73;;
70322;SDS011;57735;56.264;43.898;2023-02-19T07:49:20;30.33;;;9.23;;
70322;SDS011;57735;56.264;43.898;2023-02-19T07:51:50;25.58;;;8.35;;
70322;SDS011;57735;56.264;43.898;2023-02-19T07:54:21;23.27;;;8.63;;
70322;SDS011;57735;56.264;43.898;2023-02-19T07:56:54;34.33;;;10.95;;
70322;SDS011;57735;56.264;43.898;2023-02-19T07:59:27;33.88;;;11.52;;
70322;SDS011;57735;56.264;43.898;2023-02-19T08:02:01;35.23;;;10.77;;
70322;SDS011;57735;56.264;43.898;2023-02-19T08:04:50;26.98;;;9.00;;
70322;SDS011;57735;56.264;43.898;2023-02-19T08:07:21;25.63;;;8.68;;
70322;SDS011;57735;56.264;43.898;2023-02-19T08:09:52;18.85;;;7.70;;
70322;SDS011;57735;56.264;43.898;2023-02-19T08:12:42;26.30;;;8.57;;
70322;SDS011;57735;56.264;43.898;2023-02-19T08:15:31;26.73;;;9.30;;
70322;SDS011;57735;56.264;43.898;2023-02-19T08:18:02;27.40;;;8.57;;
70322;SDS011;57735;56.264;43.898;2023-02-19T08:20:33;28.52;;;7.63;;
70322;SDS011;57735;56.264;43.898;2023-02-19T08:23:04;39.97;;;9.55;;
70322;SDS011;57735;56.264;43.898;2023-02-19T08:25:35;31.70;;;9.70;;
70322;SDS011;57735;56.264;43.898;2023-02-19T08:28:07;23.85;;;10.13;;
70322;SDS011;57735;56.264;43.898;2023-02-19T08:30:40;26.40;;;9.63;;
70322;SDS011;57735;56.264;43.898;2023-02-19T08:33:16;26.20;;;10.55;;
70322;SDS011;57735;56.264;43.898;2023-02-19T08:35:49;27.17;;;8.77;;
70322;SDS011;57735;56.264;43.898;2023-02-19T08:38:19;23.27;;;8.27;;
70322;SDS011;57735;56.264;43.898;2023-02-19T08:40:50;34.30;;;9.30;;
70322;SDS011;57735;56.264;43.898;2023-02-19T08:43:24;26.17;;;8.05;;
70322;SDS011;57735;56.264;43.898;2023-02-19T08:45:55;30.65;;;10.07;;
70322;SDS011;57735;56.264;43.898;2023-02-19T08:48:25;29.13;;;9.52;;
70322;SDS011;57735;56.264;43.898;2023-02-19T08:50:58;27.70;;;10.32;;
70322;SDS011;57735;56.264;43.898;2023-02-19T08:53:31;33.13;;;10.98;;
70322;SDS011;57735;56.264;43.898;2023-02-19T08:56:12;27.65;;;9.25;;
70322;SDS011;57735;56.264;43.898;2023-02-19T08:58:45;31.33;;;10.02;;
70322;SDS011;57735;56.264;43.898;2023-02-19T09:01:19;27.05;;;8.90;;
70322;SDS011;57735;56.264;43.898;2023-02-19T09:03:49;31.08;;;10.10;;
70322;SDS011;57735;56.264;43.898;2023-02-19T09:06:20;28.83;;;10.70;;
70322;SDS011;57735;56.264;43.898;2023-02-19T09:08:51;32.30;;;10.10;;
70322;SDS011;57735;56.264;43.898;2023-02-19T09:11:25;26.90;;;10.25;;
70322;SDS011;57735;56.264;43.898;2023-02-19T09:13:56;24.63;;;8.83;;
70322;SDS011;57735;56.264;43.898;2023-02-19T09:16:29;24.40;;;9.27;;
70322;SDS011;57735;56.264;43.898;2023-02-19T09:19:00;26.98;;;9.73;;
70322;SDS011;57735;56.264;43.898;2023-02-19T09:21:30;25.58;;;8.90;;
70322;SDS011;57735;56.264;43.898;2023-02-19T09:24:01;32.58;;;9.68;;
70322;SDS011;57735;56.264;43.898;2023-02-19T09:26:32;27.58;;;9.25;;
70322;SDS011;57735;56.264;43.898;2023-02-19T09:29:03;24.42;;;7.80;;
70322;SDS011;57735;56.264;43.898;2023-02-19T09:31:34;26.77;;;9.45;;
70322;SDS011;57735;56.264;43.898;2023-02-19T09:34:05;26.63;;;8.13;;
70322;SDS011;57735;56.264;43.898;2023-02-19T09:36:36;23.27;;;8.57;;
70322;SDS011;57735;56.264;43.898;2023-02-19T09:39:08;26.63;;;8.95;;
70322;SDS011;57735;56.264;43.898;2023-02-19T09:41:42;21.37;;;8.20;;
70322;SDS011;57735;56.264;43.898;2023-02-19T09:44:20;23.48;;;8.63;;
70322;SDS011;57735;56.264;43.898;2023-02-19T09:47:00;11.52;;;4.43;;
70322;SDS011;57735;56.264;43.898;2023-02-19T09:49:42;21.25;;;7.85;;
70322;SDS011;57735;56.264;43.898;2023-02-19T09:52:39;26.85;;;9.05;;
70322;SDS011;57735;56.264;43.898;2023-02-19T09:55:19;32.78;;;9.70;;
70322;SDS011;57735;56.264;43.898;2023-02-19T09:58:00;26.27;;;8.77;;
70322;SDS011;57735;56.264;43.898;2023-02-19T10:00:36;23.58;;;9.02;;
70322;SDS011;57735;56.264;43.898;2023-02-19T10:03:13;28.92;;;9.55;;
70322;SDS011;57735;56.264;43.898;2023-02-19T10:05:53;30.83;;;9.80;;
70322;SDS011;57735;56.264;43.898;2023-02-19T10:08:25;28.75;;;9.70;;
70322;SDS011;57735;56.264;43.898;2023-02-19T10:10:56;21.40;;;8.55;;
70322;SDS011;57735;56.264;43.898;2023-02-19T10:13:34;20.92;;;7.40;;
70322;SDS011;57735;56.264;43.898;2023-02-19T10:16:10;20.02;;;7.47;;
70322;SDS011;57735;56.264;43.898;2023-02-19T10:18:46;27.27;;;8.57;;
70322;SDS011;57735;56.264;43.898;2023-02-19T10:21:18;30.40;;;9.77;;
70322;SDS011;57735;56.264;43.898;2023-02-19T10:23:53;27.27;;;10.77;;
70322;SDS011;57735;56.264;43.898;2023-02-19T10:26:28;22.17;;;7.63;;
70322;SDS011;57735;56.264;43.898;2023-02-19T10:29:04;33.75;;;10.30;;
70322;SDS011;57735;56.264;43.898;2023-02-19T10:31:35;24.58;;;6.93;;
70322;SDS011;57735;56.264;43.898;2023-02-19T10:34:06;26.73;;;7.95;;
70322;SDS011;57735;56.264;43.898;2023-02-19T10:36:48;25.20;;;8.60;;
70322;SDS011;57735;56.264;43.898;2023-02-19T10:41:52;23.40;;;7.95;;
70322;SDS011;57735;56.264;43.898;2023-02-19T10:44:28;29.02;;;8.45;;
70322;SDS011;57735;56.264;43.898;2023-02-19T10:47:07;31.27;;;9.38;;
70322;SDS011;57735;56.264;43.898;2023-02-19T10:49:49;24.55;;;7.10;;
70322;SDS011;57735;56.264;43.898;2023-02-19T10:52:24;22.92;;;7.47;;
70322;SDS011;57735;56.264;43.898;2023-02-19T10:57:51;21.55;;;7.95;;
70322;SDS011;57735;56.264;43.898;2023-02-19T11:00:25;20.27;;;7.70;;
70322;SDS011;57735;56.264;43.898;2023-02-19T11:06:03;27.00;;;8.85;;
70322;SDS011;57735;56.264;43.898;2023-02-19T11:11:35;27.35;;;8.02;;
70322;SDS011;57735;56.264;43.898;2023-02-19T11:14:14;24.95;;;7.80;;
70322;SDS011;57735;56.264;43.898;2023-02-19T11:16:54;38.35;;;8.80;;
70322;SDS011;57735;56.264;43.898;2023-02-19T11:19:33;18.88;;;6.40;;
70322;SDS011;57735;56.264;43.898;2023-02-19T11:27:56;21.75;;;7.53;;
70322;SDS011;57735;56.264;43.898;2023-02-19T11:35:50;22.73;;;7.90;;
70322;SDS011;57735;56.264;43.898;2023-02-19T11:38:27;15.65;;;6.65;;
70322;SDS011;57735;56.264;43.898;2023-02-19T11:41:08;29.17;;;8.30;;
70322;SDS011;57735;56.264;43.898;2023-02-19T11:44:01;25.92;;;8.57;;
70322;SDS011;57735;56.264;43.898;2023-02-19T12:04:45;21.88;;;8.43;;
70322;SDS011;57735;56.264;43.898;2023-02-19T12:07:42;22.65;;;8.00;;
70322;SDS011;57735;56.264;43.898;2023-02-19T12:19:43;19.67;;;7.57;;
70322;SDS011;57735;56.264;43.898;2023-02-19T12:37:31;24.60;;;7.13;;
70322;SDS011;57735;56.264;43.898;2023-02-19T12:45:44;27.15;;;8.60;;
70322;SDS011;57735;56.264;43.898;2023-02-19T12:48:25;23.20;;;8.18;;
70322;SDS011;57735;56.264;43.898;2023-02-19T12:51:06;24.70;;;9.07;;
70322;SDS011;57735;56.264;43.898;2023-02-19T12:53:41;19.55;;;8.40;;
70322;SDS011;57735;56.264;43.898;2023-02-19T12:56:30;28.85;;;9.38;;
70322;SDS011;57735;56.264;43.898;2023-02-19T13:01:47;27.92;;;9.77;;
70322;SDS011;57735;56.264;43.898;2023-02-19T13:07:08;22.05;;;9.45;;
70322;SDS011;57735;56.264;43.898;2023-02-19T13:10:03;23.83;;;7.50;;
70322;SDS011;57735;56.264;43.898;2023-02-19T13:12:53;19.42;;;6.60;;
70322;SDS011;57735;56.264;43.898;2023-02-19T13:18:00;24.38;;;8.98;;
70322;SDS011;57735;56.264;43.898;2023-02-19T13:20:35;30.17;;;8.30;;
70322;SDS011;57735;56.264;43.898;2023-02-19T13:23:18;25.98;;;9.02;;
70322;SDS011;57735;56.264;43.898;2023-02-19T13:37:30;24.33;;;8.25;;
70322;SDS011;57735;56.264;43.898;2023-02-19T13:40:17;25.00;;;8.15;;
70322;SDS011;57735;56.264;43.898;2023-02-19T13:42:53;25.88;;;9.50;;
70322;SDS011;57735;56.264;43.898;2023-02-19T13:45:33;20.80;;;7.22;;
70322;SDS011;57735;56.264;43.898;2023-02-19T13:48:13;21.98;;;8.13;;
70322;SDS011;57735;56.264;43.898;2023-02-19T14:14:49;22.45;;;8.25;;
70322;SDS011;57735;56.264;43.898;2023-02-19T14:17:39;30.65;;;9.73;;
70322;SDS011;57735;56.264;43.898;2023-02-19T14:25:33;31.90;;;9.32;;
70322;SDS011;57735;56.264;43.898;2023-02-19T14:33:39;22.17;;;8.48;;
70322;SDS011;57735;56.264;43.898;2023-02-19T14:36:25;29.45;;;8.05;;
70322;SDS011;57735;56.264;43.898;2023-02-19T14:39:34;22.77;;;7.88;;
70322;SDS011;57735;56.264;43.898;2023-02-19T14:42:11;22.65;;;7.80;;
70322;SDS011;57735;56.264;43.898;2023-02-19T14:44:58;30.17;;;8.48;;
70322;SDS011;57735;56.264;43.898;2023-02-19T14:47:33;30.20;;;9.35;;
70322;SDS011;57735;56.264;43.898;2023-02-19T14:50:11;22.27;;;8.60;;
70322;SDS011;57735;56.264;43.898;2023-02-19T14:53:02;25.55;;;7.90;;
70322;SDS011;57735;56.264;43.898;2023-02-19T14:55:36;18.08;;;7.18;;
70322;SDS011;57735;56.264;43.898;2023-02-19T14:58:14;23.87;;;9.40;;
70322;SDS011;57735;56.264;43.898;2023-02-19T15:03:28;16.08;;;5.82;;
70322;SDS011;57735;56.264;43.898;2023-02-19T15:06:04;25.60;;;8.20;;
70322;SDS011;57735;56.264;43.898;2023-02-19T15:11:22;26.02;;;7.00;;
70322;SDS011;57735;56.264;43.898;2023-02-19T15:14:02;19.75;;;7.57;;
70322;SDS011;57735;56.264;43.898;2023-02-19T15:16:36;25.67;;;8.63;;
70322;SDS011;57735;56.264;43.898;2023-02-19T15:19:07;32.35;;;9.70;;
70322;SDS011;57735;56.264;43.898;2023-02-19T15:21:42;24.83;;;5.95;;
70322;SDS011;57735;56.264;43.898;2023-02-19T15:24:16;23.17;;;7.72;;
70322;SDS011;57735;56.264;43.898;2023-02-19T15:26:49;17.27;;;6.63;;
70322;SDS011;57735;56.264;43.898;2023-02-19T15:29:26;20.48;;;6.25;;
70322;SDS011;57735;56.264;43.898;2023-02-19T15:31:58;18.80;;;6.63;;
70322;SDS011;57735;56.264;43.898;2023-02-19T15:34:30;13.68;;;4.88;;
70322;SDS011;57735;56.264;43.898;2023-02-19T15:37:05;17.70;;;7.20;;
70322;SDS011;57735;56.264;43.898;2023-02-19T15:39:42;21.63;;;7.75;;
70322;SDS011;57735;56.264;43.898;2023-02-19T15:42:16;28.98;;;8.85;;
70322;SDS011;57735;56.264;43.898;2023-02-19T15:47:26;19.75;;;6.97;;
70322;SDS011;57735;56.264;43.898;2023-02-19T15:52:54;25.85;;;8.55;;
70322;SDS011;57735;56.264;43.898;2023-02-19T15:58:39;22.95;;;7.57;;
70322;SDS011;57735;56.264;43.898;2023-02-19T16:01:24;29.60;;;8.88;;
70322;SDS011;57735;56.264;43.898;2023-02-19T16:04:01;25.25;;;8.63;;
70322;SDS011;57735;56.264;43.898;2023-02-19T16:06:33;16.80;;;6.65;;
70322;SDS011;57735;56.264;43.898;2023-02-19T16:09:36;28.33;;;8.48;;
70322;SDS011;57735;56.264;43.898;2023-02-19T16:12:18;31.08;;;9.85;;
70322;SDS011;57735;56.264;43.898;2023-02-19T16:17:24;23.60;;;7.53;;
70322;SDS011;57735;56.264;43.898;2023-02-19T16:19:57;21.30;;;7.03;;
70322;SDS011;57735;56.264;43.898;2023-02-19T16:22:39;27.75;;;9.45;;
70322;SDS011;57735;56.264;43.898;2023-02-19T16:25:25;26.63;;;8.32;;
70322;SDS011;57735;56.264;43.898;2023-02-19T16:28:13;28.30;;;9.70;;
70322;SDS011;57735;56.264;43.898;2023-02-19T16:30:56;26.88;;;8.13;;
70322;SDS011;57735;56.264;43.898;2023-02-19T16:33:36;34.35;;;10.48;;
70322;SDS011;57735;56.264;43.898;2023-02-19T16:36:33;22.92;;;6.68;;
70322;SDS011;57735;56.264;43.898;2023-02-19T16:41:47;39.90;;;11.95;;
70322;SDS011;57735;56.264;43.898;2023-02-19T16:44:33;31.90;;;10.30;;
70322;SDS011;57735;56.264;43.898;2023-02-19T16:47:12;29.55;;;9.68;;
70322;SDS011;57735;56.264;43.898;2023-02-19T16:49:45;26.20;;;7.78;;
70322;SDS011;57735;56.264;43.898;2023-02-19T16:52:16;21.42;;;7.60;;
70322;SDS011;57735;56.264;43.898;2023-02-19T16:54:49;39.17;;;11.52;;
70322;SDS011;57735;56.264;43.898;2023-02-19T16:57:20;24.58;;;9.00;;
70322;SDS011;57735;56.264;43.898;2023-02-19T16:59:51;27.23;;;9.77;;
70322;SDS011;57735;56.264;43.898;2023-02-19T17:02:22;33.13;;;10.68;;
70322;SDS011;57735;56.264;43.898;2023-02-19T17:04:54;36.25;;;11.40;;
70322;SDS011;57735;56.264;43.898;2023-02-19T17:07:28;30.15;;;8.60;;
70322;SDS011;57735;56.264;43.898;2023-02-19T17:09:58;27.55;;;8.77;;
70322;SDS011;57735;56.264;43.898;2023-02-19T17:12:29;28.85;;;8.75;;
70322;SDS011;57735;56.264;43.898;2023-02-19T17:15:00;33.58;;;10.90;;
70322;SDS011;57735;56.264;43.898;2023-02-19T17:17:31;28.13;;;9.75;;
70322;SDS011;57735;56.264;43.898;2023-02-19T17:20:08;30.83;;;10.82;;
70322;SDS011;57735;56.264;43.898;2023-02-19T17:22:42;30.85;;;9.60;;
70322;SDS011;57735;56.264;43.898;2023-02-19T17:25:13;39.30;;;11.93;;
70322;SDS011;57735;56.264;43.898;2023-02-19T17:27:44;42.83;;;13.00;;
70322;SDS011;57735;56.264;43.898;2023-02-19T17:30:26;43.33;;;13.18;;
70322;SDS011;57735;56.264;43.898;2023-02-19T17:33:00;41.20;;;10.48;;
70322;SDS011;57735;56.264;43.898;2023-02-19T17:35:34;37.90;;;9.98;;
70322;SDS011;57735;56.264;43.898;2023-02-19T17:38:05;32.40;;;10.32;;
70322;SDS011;57735;56.264;43.898;2023-02-19T17:40:38;29.63;;;10.43;;
70322;SDS011;57735;56.264;43.898;2023-02-19T17:43:09;41.00;;;11.90;;
70322;SDS011;57735;56.264;43.898;2023-02-19T17:45:40;40.65;;;13.18;;
70322;SDS011;57735;56.264;43.898;2023-02-19T17:48:12;45.60;;;11.93;;
70322;SDS011;57735;56.264;43.898;2023-02-19T17:50:43;41.35;;;13.65;;
70322;SDS011;57735;56.264;43.898;2023-02-19T17:53:14;39.83;;;12.85;;
70322;SDS011;57735;56.264;43.898;2023-02-19T17:55:45;49.50;;;14.52;;
70322;SDS011;57735;56.264;43.898;2023-02-19T17:58:16;34.80;;;10.90;;
70322;SDS011;57735;56.264;43.898;2023-02-19T18:00:47;41.60;;;12.07;;
70322;SDS011;57735;56.264;43.898;2023-02-19T18:03:18;45.33;;;14.40;;